Captain Cook, HI

3:03 AM HST on February 25, 2017 (GMT -1000)
Captain Cook | | Change Station

Elev 1503 ft 19.47 °N, 155.89 °W | Updated 1 minute ago

Partly Cloudy
Partly Cloudy
61.9 °F
Feels Like 61.9 °F
N
2.0
Wind Variable Wind from East

Today
High -- | Low -- °F
--% Chance of Precip.
Yesterday
High -- | Low -- °F
Precip. -- in
Pressure 30.02 in
Visibility 10.0 miles
Clouds Scattered Clouds 4800 ft
Dew Point 55 °F
Humidity 80%
Rainfall 0.00 in
Snow Depth Not available.
6:45 AM 6:27 PM
Waning Crescent, 1% visible
METAR PHTO 251253Z 23006KT 10SM SCT048 18/10 A3002 RMK AO2 SLP165 T01780100
Pressure 30.02 in
Visibility 10.0 miles
Clouds Scattered Clouds 4800 ft
Dew Point 55 °F
Humidity 80%
Rainfall 0.00 in
Snow Depth Not available.
6:45 AM 6:27 PM
Waning Crescent, 1% visible
METAR PHTO 251253Z 23006KT 10SM SCT048 18/10 A3002 RMK AO2 SLP165 T01780100

Get Your Daily Forecast Email!

Thanks for signing up!

Be on the lookout for a verification email in your inbox.

You'll start receiving the daily forecast at 8 AM.

×

10-Day Weather Forecast

Almanac

Astronomy

Feb. 25, 2017 Rise Set
Actual Time
Civil Twilight
Nautical Twilight
Astronomical Twilight
Moon
Length of Visible Light
Length of Day
Tomorrow will be .
, % of the Moon is Illuminated

Today's Extremes

State Highs State Lows

Community

WunderPhotos

Upload Photos

1,962,540 photos uploaded!

WunderBlog® & News

Nearby

Air Quality

  Air Quality AQ Index Pollutant
Not available.

Snow Depth

Station Depth Elevation

Earthquake Activity

City Distance Mag. Time & Date
Minimum magnitude displayed is 2.5.

Coastal Water Temperatures

Place Temperature

Stations

Nearby Weather Stations

Station Location Temp. Windchill Dew Point Humidity Wind Precip. Elev Updated Type
                   

Watches & Warnings

There are currently no watches in effect.